Time;durP1;ratioP1;P1;durP2;ratioP2;P2;SDS_P1;SDS_P2;PMS_P1;PMS_P2;Temp;Humidity;BMP_temperature;BMP_pressure;BME280_temperature;BME280_humidity;BME280_pressure;Samples;Min_cycle;Max_cycle;Signal;HPM_P1;HPM_P2
2022/11/03 00:01:06;;;;;;;9.70;2.30;;;13.90;99.90;;;;;;5028366;28;20267;-81
2022/11/03 00:03:31;;;;;;;21.33;2.67;;;13.80;99.90;;;;;;5012237;28;20173;-84
2022/11/03 00:06:06;;;;;;;9.45;2.20;;;13.70;99.90;;;;;;5033106;28;20189;-86
2022/11/03 00:08:41;;;;;;;14.85;2.28;;;13.80;99.90;;;;;;5028526;28;20188;-84
2022/11/03 00:11:08;;;;;;;17.08;2.47;;;13.80;99.90;;;;;;5013821;28;20191;-84
2022/11/03 00:13:34;;;;;;;14.05;2.60;;;13.90;99.90;;;;;;5012532;28;20638;-88
2022/11/03 00:16:00;;;;;;;7.88;1.95;;;13.90;99.90;;;;;;5013356;28;20677;-85
2022/11/03 00:18:26;;;;;;;10.18;2.17;;;13.90;99.90;;;;;;5028321;28;20180;-84
2022/11/03 00:20:56;;;;;;;18.67;2.35;;;13.90;99.90;;;;;;5028977;28;20172;-88
2022/11/03 00:23:24;;;;;;;10.65;2.08;;;13.90;99.90;;;;;;5012494;28;20196;-83
2022/11/03 00:25:49;;;;;;;13.02;2.20;;;13.90;99.90;;;;;;5014022;28;20161;-86
2022/11/03 00:28:15;;;;;;;5.60;2.35;;;13.90;99.90;;;;;;5013519;28;20226;-87
2022/11/03 00:30:41;;;;;;;7.43;1.92;;;13.80;99.90;;;;;;5013434;28;20168;-89
2022/11/03 00:33:06;;;;;;;11.07;2.08;;;13.80;99.90;;;;;;5028723;28;20200;-84
2022/11/03 00:35:32;;;;;;;8.82;2.53;;;13.90;99.90;;;;;;5013570;28;20197;-87
2022/11/03 00:37:58;;;;;;;8.70;2.22;;;14.00;99.90;;;;;;5012053;28;20232;-83
2022/11/03 00:40:23;;;;;;;12.93;2.03;;;14.10;99.90;;;;;;5028431;28;20253;-86
2022/11/03 00:42:49;;;;;;;7.80;2.03;;;14.00;99.90;;;;;;5011815;28;20172;-87
2022/11/03 00:45:14;;;;;;;10.25;1.70;;;13.80;99.90;;;;;;5013182;28;20168;-81
2022/11/03 00:48:28;;;;;;;12.82;2.15;;;13.80;99.90;;;;;;5028251;28;20259;-86
2022/11/03 00:50:26;;;;;;;4.75;1.63;;;13.80;99.90;;;;;;5012892;28;20172;-87
2022/11/03 00:52:52;;;;;;;6.32;1.60;;;13.80;99.90;;;;;;5011896;28;20182;-83
2022/11/03 00:55:17;;;;;;;24.90;2.72;;;13.90;99.90;;;;;;5011928;28;20188;-81
2022/11/03 00:57:44;;;;;;;7.85;2.15;;;13.80;99.90;;;;;;5027912;28;20300;-82
2022/11/03 01:00:10;;;;;;;16.08;2.75;;;13.80;99.90;;;;;;5027452;28;20733;-83
2022/11/03 01:02:36;;;;;;;6.53;1.45;;;13.90;99.90;;;;;;5012361;28;20173;-83
2022/11/03 01:07:53;;;;;;;8.27;1.90;;;13.90;99.90;;;;;;5011506;28;20208;-86
2022/11/03 01:10:19;;;;;;;8.77;2.30;;;13.80;99.90;;;;;;5011541;28;20172;-82
2022/11/03 01:12:44;;;;;;;7.72;1.95;;;13.70;99.90;;;;;;5012557;28;20204;-83
2022/11/03 01:15:10;;;;;;;5.57;1.60;;;13.60;99.90;;;;;;5010979;28;20168;-82
2022/11/03 01:17:35;;;;;;;11.65;1.83;;;13.70;99.90;;;;;;5012317;28;20188;-86
2022/11/03 01:20:01;;;;;;;12.00;2.22;;;13.70;99.90;;;;;;5012302;28;20627;-81
2022/11/03 01:22:27;;;;;;;6.97;1.73;;;13.60;99.90;;;;;;5012241;28;20680;-84
2022/11/03 01:24:52;;;;;;;8.40;2.35;;;13.60;99.90;;;;;;5012422;28;20503;-82
2022/11/03 01:27:21;;;;;;;5.47;1.70;;;13.70;99.90;;;;;;5012307;28;20243;-81
2022/11/03 01:29:46;;;;;;;10.98;1.80;;;13.70;99.90;;;;;;5015127;28;20168;-84
2022/11/03 01:32:12;;;;;;;6.88;1.88;;;13.70;99.90;;;;;;5015921;28;21065;-83
2022/11/03 01:34:38;;;;;;;9.35;2.10;;;13.70;99.90;;;;;;5016275;28;20179;-85
2022/11/03 01:37:04;;;;;;;12.05;1.98;;;13.70;99.90;;;;;;5015153;28;20303;-86
2022/11/03 01:39:30;;;;;;;6.35;2.20;;;13.70;99.90;;;;;;5015077;28;20169;-88
2022/11/03 01:41:56;;;;;;;13.80;1.90;;;13.70;99.90;;;;;;5015947;28;20187;-84
2022/11/03 01:44:21;;;;;;;8.60;2.33;;;13.70;99.90;;;;;;5016606;28;20165;-85
2022/11/03 01:46:59;;;;;;;5.03;1.23;;;13.70;99.90;;;;;;5016596;28;20190;-84
2022/11/03 01:49:45;;;;;;;6.75;1.45;;;13.70;99.90;;;;;;5015945;28;20161;-82
2022/11/03 01:52:35;;;;;;;16.52;2.33;;;13.70;99.90;;;;;;5014886;28;20578;-86
2022/11/03 01:55:09;;;;;;;5.35;2.03;;;13.60;99.90;;;;;;5015833;28;20179;-86
2022/11/03 01:57:44;;;;;;;18.92;2.90;;;13.70;99.90;;;;;;5015932;28;20231;-85
2022/11/03 02:00:10;;;;;;;15.57;2.03;;;13.70;99.90;;;;;;5031075;28;20625;-83
2022/11/03 02:02:36;;;;;;;11.93;1.88;;;13.70;99.90;;;;;;5014163;28;20181;-82
2022/11/03 02:05:04;;;;;;;5.88;1.52;;;13.70;99.90;;;;;;5030515;28;20630;-84
2022/11/03 02:07:35;;;;;;;8.55;1.60;;;13.80;99.90;;;;;;5015287;28;20239;-81
2022/11/03 02:10:01;;;;;;;10.38;1.55;;;13.80;99.90;;;;;;5015294;28;20169;-82
2022/11/03 02:12:28;;;;;;;5.78;2.00;;;13.70;99.90;;;;;;5030324;28;20172;-81
2022/11/03 02:14:59;;;;;;;12.02;2.47;;;13.70;99.90;;;;;;5014010;28;20196;-84
2022/11/03 02:17:27;;;;;;;20.23;2.60;;;13.70;99.90;;;;;;5014967;28;20264;-83
2022/11/03 02:20:01;;;;;;;14.80;1.98;;;13.70;99.90;;;;;;5013449;28;20169;-81
2022/11/03 02:22:48;;;;;;;11.95;1.63;;;13.70;99.90;;;;;;5013612;28;20231;-82
2022/11/03 02:25:29;;;;;;;8.77;1.58;;;13.60;99.90;;;;;;5014879;28;20258;-81
2022/11/03 02:27:56;;;;;;;12.13;2.00;;;13.70;99.90;;;;;;5015020;28;20310;-81
2022/11/03 02:30:21;;;;;;;14.18;2.10;;;13.80;99.90;;;;;;5013562;28;20235;-83
2022/11/03 02:33:11;;;;;;;4.32;1.40;;;13.70;99.90;;;;;;5013280;28;20704;-84
2022/11/03 02:35:40;;;;;;;7.07;1.83;;;13.70;99.90;;;;;;5014994;28;20201;-84
2022/11/03 02:38:11;;;;;;;5.60;1.23;;;13.70;99.90;;;;;;5013581;28;20192;-82
2022/11/03 02:40:44;;;;;;;10.68;1.90;;;13.70;99.90;;;;;;5029826;28;20252;-84
2022/11/03 02:43:12;;;;;;;6.13;1.40;;;13.80;99.90;;;;;;5013283;28;20176;-83
2022/11/03 02:45:39;;;;;;;14.30;1.90;;;13.70;99.90;;;;;;5013369;28;20171;-83
2022/11/03 02:48:05;;;;;;;6.28;1.92;;;13.80;99.90;;;;;;5014510;28;20180;-81
2022/11/03 02:50:33;;;;;;;9.43;1.60;;;13.80;99.90;;;;;;5014502;28;20635;-81
2022/11/03 02:52:59;;;;;;;3.95;1.38;;;13.60;99.90;;;;;;5014900;28;20164;-83
2022/11/03 02:55:30;;;;;;;7.93;1.45;;;13.70;99.90;;;;;;5013331;28;20219;-82
2022/11/03 02:58:09;;;;;;;5.38;1.90;;;13.80;99.90;;;;;;5014460;28;20689;-81
2022/11/03 03:00:56;;;;;;;10.85;1.38;;;13.80;99.90;;;;;;5014169;28;20246;-83
2022/11/03 03:03:32;;;;;;;7.28;1.77;;;13.80;99.90;;;;;;5014382;28;20226;-80
2022/11/03 03:06:21;;;;;;;6.10;1.60;;;13.70;99.90;;;;;;5014372;28;20176;-83
2022/11/03 03:08:53;;;;;;;10.38;2.40;;;13.80;99.90;;;;;;5012768;28;20193;-80
2022/11/03 03:11:35;;;;;;;8.38;1.45;;;13.80;99.90;;;;;;5014897;28;20173;-82
2022/11/03 03:14:04;;;;;;;9.35;2.22;;;13.80;99.90;;;;;;5012892;28;20176;-81
2022/11/03 03:16:34;;;;;;;16.80;2.75;;;13.80;99.90;;;;;;5029182;28;20204;-81
2022/11/03 03:19:16;;;;;;;15.10;2.05;;;13.80;99.90;;;;;;5012202;28;20618;-81
2022/11/03 03:21:46;;;;;;;14.00;2.53;;;13.90;99.90;;;;;;5012683;28;20188;-82
2022/11/03 03:24:27;;;;;;;14.82;2.35;;;13.90;99.90;;;;;;5014159;28;20523;-81
2022/11/03 03:26:57;;;;;;;16.20;2.30;;;13.90;99.90;;;;;;5012720;28;20215;-80
2022/11/03 03:29:38;;;;;;;9.98;1.90;;;13.90;99.90;;;;;;5013295;28;20176;-82
2022/11/03 03:32:08;;;;;;;12.30;1.45;;;14.00;99.90;;;;;;5013773;28;20661;-80
2022/11/03 03:34:38;;;;;;;6.47;1.88;;;13.90;99.90;;;;;;5029116;28;20168;-83
2022/11/03 03:37:06;;;;;;;8.32;1.85;;;13.90;99.90;;;;;;5013346;28;20212;-83
2022/11/03 03:39:35;;;;;;;15.20;2.03;;;13.90;99.90;;;;;;5013604;28;20638;-82
2022/11/03 03:42:02;;;;;;;12.27;2.40;;;13.80;99.90;;;;;;5012319;28;20173;-81
2022/11/03 03:44:29;;;;;;;10.38;2.08;;;13.70;99.90;;;;;;5012382;28;20522;-82
2022/11/03 03:47:03;;;;;;;7.03;1.75;;;13.80;99.90;;;;;;5028128;28;20230;-82
2022/11/03 03:49:28;;;;;;;7.85;1.65;;;13.90;99.90;;;;;;5012329;28;20646;-85
2022/11/03 03:51:54;;;;;;;9.35;2.22;;;14.00;99.90;;;;;;5013115;28;20244;-80
2022/11/03 03:54:19;;;;;;;8.20;2.38;;;14.00;99.90;;;;;;5028494;28;20176;-83
2022/11/03 03:56:54;;;;;;;8.93;1.92;;;14.00;99.90;;;;;;5028295;28;20566;-81
2022/11/03 03:59:19;;;;;;;5.13;1.58;;;14.00;99.90;;;;;;5013190;28;20207;-83
2022/11/03 04:01:45;;;;;;;6.20;2.03;;;14.00;99.90;;;;;;5012822;28;20199;-82
2022/11/03 04:04:10;;;;;;;11.52;1.70;;;14.10;99.90;;;;;;5012695;28;20708;-81
2022/11/03 04:06:36;;;;;;;9.90;2.15;;;14.10;99.90;;;;;;5028122;28;20649;-83
2022/11/03 04:09:02;;;;;;;8.88;1.80;;;14.00;99.90;;;;;;5012847;28;20175;-80
2022/11/03 04:22:28;;;;;;;8.30;2.67;;;14.00;99.90;;;;;;5013211;28;20667;-82
2022/11/03 04:24:54;;;;;;;7.88;1.88;;;14.20;99.90;;;;;;5012997;28;20191;-81
2022/11/03 04:27:31;;;;;;;9.95;1.90;;;14.20;99.90;;;;;;5012797;28;20196;-81
2022/11/03 04:30:18;;;;;;;13.25;1.90;;;14.10;99.90;;;;;;5011156;28;20284;-82
2022/11/03 04:32:45;;;;;;;8.93;1.70;;;14.00;99.90;;;;;;5012458;28;20545;-81
2022/11/03 04:35:15;;;;;;;10.45;1.95;;;14.00;99.90;;;;;;5012801;28;20173;-81
2022/11/03 04:37:41;;;;;;;3.33;1.85;;;14.10;99.90;;;;;;5013071;28;20192;-84
2022/11/03 04:40:14;;;;;;;8.50;2.28;;;14.30;99.90;;;;;;5011679;28;20176;-83
2022/11/03 04:42:39;;;;;;;4.13;1.88;;;14.30;99.90;;;;;;5027695;28;20671;-84
2022/11/03 04:45:25;;;;;;;5.78;1.95;;;14.30;99.90;;;;;;5011479;28;20175;-82
2022/11/03 04:47:51;;;;;;;6.43;1.83;;;14.20;99.90;;;;;;5012448;28;20279;-83
2022/11/03 04:50:19;;;;;;;9.15;1.55;;;14.30;99.90;;;;;;5027700;28;20176;-83
2022/11/03 04:52:58;;;;;;;6.22;1.58;;;14.20;99.90;;;;;;5027429;28;20172;-82
2022/11/03 04:55:25;;;;;;;8.77;2.13;;;14.30;99.90;;;;;;5012294;28;20199;-81
2022/11/03 04:57:59;;;;;;;19.30;2.17;;;14.20;99.90;;;;;;5012378;28;20215;-81
2022/11/03 05:00:24;;;;;;;5.72;1.58;;;14.30;99.90;;;;;;5013214;28;20172;-82
2022/11/03 05:02:50;;;;;;;6.68;2.22;;;14.30;99.90;;;;;;5012494;28;20539;-82
2022/11/03 05:05:22;;;;;;;16.02;2.33;;;14.20;99.90;;;;;;5014419;28;20187;-82
2022/11/03 05:07:56;;;;;;;6.50;2.33;;;14.30;99.90;;;;;;5015934;28;20219;-82
2022/11/03 05:10:27;;;;;;;6.18;1.95;;;14.30;99.90;;;;;;5016346;28;20184;-83
2022/11/03 05:12:54;;;;;;;19.92;2.55;;;14.30;99.90;;;;;;5015085;28;20207;-82
2022/11/03 05:15:35;;;;;;;5.30;1.52;;;14.30;99.90;;;;;;5016069;28;20168;-81
2022/11/03 05:18:11;;;;;;;6.95;2.25;;;14.20;99.90;;;;;;5031435;28;20199;-81
2022/11/03 05:20:48;;;;;;;10.20;1.90;;;14.10;99.90;;;;;;5017538;28;20169;-81
2022/11/03 05:23:13;;;;;;;8.13;1.98;;;14.10;99.90;;;;;;5025080;28;20164;-82
2022/11/03 05:25:49;;;;;;;13.57;2.00;;;14.30;99.90;;;;;;5032705;28;20160;-83
2022/11/03 05:28:38;;;;;;;8.52;1.83;;;14.30;99.90;;;;;;5015043;28;20195;-82
2022/11/03 05:31:25;;;;;;;10.25;2.00;;;14.40;99.90;;;;;;5015895;28;20173;-81
2022/11/03 05:33:52;;;;;;;5.57;2.10;;;14.30;99.90;;;;;;5016131;28;20175;-82
2022/11/03 05:36:24;;;;;;;7.90;2.47;;;14.40;99.90;;;;;;5020757;28;20291;-81
2022/11/03 05:39:01;;;;;;;10.23;1.88;;;14.30;99.90;;;;;;5049911;28;20722;-81
2022/11/03 05:41:30;;;;;;;17.67;2.20;;;14.20;99.90;;;;;;5033915;28;20223;-80
2022/11/03 05:44:03;;;;;;;10.10;1.77;;;14.30;99.90;;;;;;5008621;28;20168;-83
2022/11/03 05:46:32;;;;;;;11.65;2.03;;;14.20;99.90;;;;;;5015446;28;20188;-81
2022/11/03 05:49:26;;;;;;;9.02;1.77;;;14.10;99.90;;;;;;5029639;28;20219;-83
2022/11/03 05:51:54;;;;;;;14.10;2.13;;;14.20;99.90;;;;;;5020244;28;20188;-80
2022/11/03 05:54:26;;;;;;;13.63;1.98;;;14.20;99.90;;;;;;5021177;28;20184;-81
2022/11/03 05:56:53;;;;;;;12.68;2.10;;;14.20;99.90;;;;;;5021780;28;20226;-82
2022/11/03 05:59:25;;;;;;;11.40;1.92;;;14.20;99.90;;;;;;5027496;28;20157;-81
2022/11/03 06:01:52;;;;;;;14.55;1.90;;;14.30;99.90;;;;;;5015520;28;20172;-83
2022/11/03 06:04:33;;;;;;;10.93;2.67;;;14.30;99.90;;;;;;5015100;28;20702;-82
2022/11/03 06:07:02;;;;;;;5.15;1.73;;;14.20;99.90;;;;;;5015019;28;20696;-82
2022/11/03 06:09:30;;;;;;;10.68;2.03;;;14.10;99.90;;;;;;5015265;28;20500;-83
2022/11/03 06:11:59;;;;;;;15.90;2.70;;;14.10;99.90;;;;;;5015015;28;20179;-81
2022/11/03 06:14:27;;;;;;;9.20;2.20;;;14.00;99.90;;;;;;5013888;28;20206;-89
2022/11/03 06:17:09;;;;;;;8.25;2.10;;;14.10;99.90;;;;;;5013816;28;20224;-81
2022/11/03 06:19:46;;;;;;;8.63;1.73;;;14.20;99.90;;;;;;5014970;28;20172;-81
2022/11/03 06:22:28;;;;;;;9.45;2.50;;;14.10;99.90;;;;;;5013367;28;20168;-82
2022/11/03 06:25:00;;;;;;;16.98;2.78;;;14.20;99.90;;;;;;5014372;28;20164;-82
2022/11/03 06:27:28;;;;;;;6.60;1.80;;;14.20;99.90;;;;;;5029578;28;20674;-82
2022/11/03 06:30:12;;;;;;;6.20;1.83;;;14.30;99.90;;;;;;5014505;28;20180;-81
2022/11/03 06:32:38;;;;;;;10.02;1.90;;;14.20;99.90;;;;;;5014380;28;20176;-81
2022/11/03 06:35:08;;;;;;;23.48;2.35;;;14.10;99.90;;;;;;5013236;28;20535;-81
2022/11/03 06:37:34;;;;;;;12.32;2.25;;;14.10;99.90;;;;;;5013243;28;20208;-83
2022/11/03 06:40:24;;;;;;;16.63;2.92;;;14.10;99.90;;;;;;5013271;28;20176;-81
2022/11/03 06:42:53;;;;;;;8.48;2.30;;;14.10;99.90;;;;;;5012981;28;20177;-81
2022/11/03 06:45:25;;;;;;;11.82;2.33;;;13.80;99.90;;;;;;5014614;28;20227;-82
2022/11/03 06:47:54;;;;;;;12.30;2.92;;;13.90;99.90;;;;;;5014308;28;20185;-81
2022/11/03 06:50:26;;;;;;;5.32;2.13;;;14.00;99.90;;;;;;5014313;28;20156;-81
2022/11/03 06:52:52;;;;;;;17.05;2.30;;;14.10;99.90;;;;;;5014494;28;20196;-81
2022/11/03 06:55:27;;;;;;;15.80;2.25;;;14.00;99.90;;;;;;5014501;28;20192;-82
2022/11/03 06:57:57;;;;;;;8.38;1.98;;;14.00;99.90;;;;;;5029807;28;20196;-81
2022/11/03 07:00:25;;;;;;;8.25;1.83;;;14.10;99.90;;;;;;5013912;28;20243;-83
2022/11/03 07:03:24;;;;;;;8.50;2.38;;;14.10;99.90;;;;;;5013283;28;20178;-82
2022/11/03 07:05:50;;;;;;;11.32;2.03;;;14.10;99.90;;;;;;5005468;28;20661;-82
2022/11/03 07:08:22;;;;;;;10.32;2.22;;;14.10;99.90;;;;;;5014496;28;20271;-85
2022/11/03 07:10:56;;;;;;;10.02;2.17;;;14.20;99.90;;;;;;5013004;28;20176;-86
2022/11/03 07:13:23;;;;;;;17.98;2.35;;;14.30;99.90;;;;;;5014480;28;20171;-83
2022/11/03 07:15:50;;;;;;;12.73;2.53;;;14.30;99.90;;;;;;5012855;28;20234;-88
2022/11/03 07:18:24;;;;;;;7.53;1.92;;;14.30;99.90;;;;;;5014356;28;20185;-82
2022/11/03 07:20:52;;;;;;;9.93;1.98;;;14.30;99.90;;;;;;5015876;28;20179;-82
2022/11/03 07:23:23;;;;;;;14.93;2.08;;;14.30;99.90;;;;;;5014896;28;20168;-86
2022/11/03 07:25:55;;;;;;;8.63;1.80;;;14.10;99.90;;;;;;5013351;28;20685;-82
2022/11/03 07:28:27;;;;;;;8.35;1.83;;;14.10;99.90;;;;;;5019103;28;20287;-87
2022/11/03 07:31:14;;;;;;;7.35;2.10;;;14.20;99.90;;;;;;5013445;28;20773;-84
2022/11/03 07:33:40;;;;;;;14.82;2.42;;;14.20;99.90;;;;;;5013898;28;20168;-81
2022/11/03 07:36:07;;;;;;;6.63;1.95;;;14.30;99.90;;;;;;5013021;28;20212;-85
2022/11/03 07:38:33;;;;;;;14.20;2.10;;;14.20;99.90;;;;;;5013704;28;20262;-87
2022/11/03 07:40:59;;;;;;;14.30;2.53;;;14.20;99.90;;;;;;5012328;28;20635;-83
2022/11/03 07:43:32;;;;;;;7.03;1.92;;;14.30;99.90;;;;;;5012596;28;20181;-84
2022/11/03 07:46:00;;;;;;;6.80;3.05;;;14.30;99.90;;;;;;5013852;28;20180;-81
2022/11/03 07:48:43;;;;;;;11.95;2.05;;;14.30;99.90;;;;;;5011956;28;20196;-83
2022/11/03 07:51:23;;;;;;;10.43;2.25;;;14.30;99.90;;;;;;5013482;28;20234;-81
2022/11/03 07:54:01;;;;;;;8.50;2.22;;;14.40;99.90;;;;;;5013792;28;20254;-81
2022/11/03 07:56:31;;;;;;;7.55;2.22;;;14.30;99.90;;;;;;5014238;28;20661;-82
2022/11/03 07:59:06;;;;;;;13.02;2.60;;;14.30;99.90;;;;;;5012870;28;20216;-80
2022/11/03 08:01:36;;;;;;;16.95;2.28;;;14.40;99.90;;;;;;5011735;28;20171;-82
2022/11/03 08:04:07;;;;;;;12.95;2.38;;;14.20;99.90;;;;;;5011461;28;20202;-82
2022/11/03 08:06:32;;;;;;;14.13;2.67;;;14.30;99.90;;;;;;5013149;28;20625;-82
2022/11/03 08:08:58;;;;;;;11.70;2.35;;;14.40;99.90;;;;;;5013043;28;20272;-80
2022/11/03 08:11:24;;;;;;;7.32;2.20;;;14.40;99.90;;;;;;5011776;28;20172;-80
2022/11/03 08:13:50;;;;;;;9.70;2.58;;;14.40;99.90;;;;;;5015046;28;20170;-81
2022/11/03 08:16:16;;;;;;;11.55;2.50;;;14.50;99.90;;;;;;5014023;28;20643;-81
2022/11/03 08:18:42;;;;;;;6.93;2.65;;;14.40;99.90;;;;;;5015571;28;20192;-82
2022/11/03 08:21:08;;;;;;;9.52;2.65;;;14.60;99.90;;;;;;5015069;28;20688;-86
2022/11/03 08:23:34;;;;;;;7.90;2.78;;;14.60;99.90;;;;;;5013321;28;20172;-87
2022/11/03 08:25:59;;;;;;;13.38;2.63;;;14.30;99.90;;;;;;5010682;28;20579;-79
2022/11/03 08:28:25;;;;;;;10.77;2.00;;;14.30;99.90;;;;;;5015588;28;20279;-83
2022/11/03 08:30:51;;;;;;;11.23;2.50;;;14.30;99.90;;;;;;5010010;28;20205;-80
2022/11/03 08:33:16;;;;;;;4.18;2.03;;;14.30;99.90;;;;;;5014747;28;20260;-81
2022/11/03 08:35:42;;;;;;;11.10;2.15;;;14.30;99.90;;;;;;5011508;28;20192;-83
2022/11/03 08:38:08;;;;;;;6.20;2.00;;;14.40;99.90;;;;;;5011685;28;20189;-82
2022/11/03 08:40:33;;;;;;;11.32;1.85;;;14.40;99.90;;;;;;5007572;28;20190;-80
2022/11/03 08:43:01;;;;;;;7.63;1.58;;;14.20;99.90;;;;;;4991264;28;20173;-81
2022/11/03 08:45:28;;;;;;;4.97;2.08;;;14.20;99.90;;;;;;4995533;28;20188;-81
2022/11/03 08:47:54;;;;;;;7.63;1.92;;;14.10;99.90;;;;;;4993335;28;20192;-81
2022/11/03 08:50:20;;;;;;;5.55;1.67;;;14.10;99.90;;;;;;4992518;28;20200;-81
2022/11/03 08:52:46;;;;;;;15.15;1.90;;;14.20;99.90;;;;;;5007774;28;20169;-82
2022/11/03 08:55:11;;;;;;;7.70;2.22;;;14.10;99.90;;;;;;4994946;28;20176;-81
2022/11/03 08:57:37;;;;;;;5.57;2.33;;;14.30;99.90;;;;;;4994631;28;20196;-81
2022/11/03 09:00:04;;;;;;;13.05;2.05;;;14.30;99.90;;;;;;4993026;28;20181;-82
2022/11/03 09:02:30;;;;;;;8.38;2.25;;;14.20;99.90;;;;;;4992735;28;20260;-81
2022/11/03 09:04:56;;;;;;;19.35;2.33;;;14.20;99.90;;;;;;4992130;28;20264;-81
2022/11/03 09:07:21;;;;;;;10.30;1.80;;;14.40;99.90;;;;;;4992260;28;20671;-81
2022/11/03 09:09:47;;;;;;;7.50;1.88;;;14.30;99.90;;;;;;4991991;28;20260;-81
2022/11/03 09:12:13;;;;;;;7.05;2.17;;;14.20;99.90;;;;;;4993118;28;20639;-84
2022/11/03 09:14:38;;;;;;;11.32;2.08;;;14.10;99.90;;;;;;4992775;28;20173;-81
2022/11/03 09:17:04;;;;;;;6.97;1.77;;;14.30;99.90;;;;;;4992377;28;20208;-83
2022/11/03 09:19:30;;;;;;;8.45;1.90;;;14.30;99.90;;;;;;4991377;28;20520;-86
2022/11/03 09:21:55;;;;;;;15.43;1.70;;;14.30;99.90;;;;;;4992891;28;20507;-83
2022/11/03 09:24:21;;;;;;;4.28;1.60;;;14.50;99.90;;;;;;4991463;28;20534;-84
2022/11/03 09:26:47;;;;;;;9.13;2.17;;;14.60;99.90;;;;;;4992550;28;20173;-82
2022/11/03 09:29:13;;;;;;;9.40;1.60;;;14.70;99.90;;;;;;4991456;28;20259;-81
2022/11/03 09:31:38;;;;;;;10.77;1.50;;;14.80;99.90;;;;;;4994061;28;20204;-82
2022/11/03 09:34:04;;;;;;;4.70;1.50;;;15.10;99.90;;;;;;4991921;28;20627;-83
2022/11/03 09:36:30;;;;;;;11.63;1.75;;;15.30;99.90;;;;;;4991405;28;20209;-83
2022/11/03 09:38:55;;;;;;;6.63;1.60;;;15.40;99.90;;;;;;4993725;28;20244;-83
2022/11/03 09:41:21;;;;;;;10.23;1.77;;;15.50;99.90;;;;;;5012497;28;20230;-83
2022/11/03 09:43:47;;;;;;;5.80;1.83;;;15.60;99.90;;;;;;5010789;28;20200;-85
2022/11/03 09:46:15;;;;;;;10.60;2.08;;;15.70;99.90;;;;;;5012569;28;20200;-81
2022/11/03 09:48:41;;;;;;;9.70;2.25;;;15.70;99.90;;;;;;5011757;28;20230;-83
2022/11/03 09:51:12;;;;;;;15.45;2.22;;;15.90;99.90;;;;;;5012262;28;20181;-81
2022/11/03 09:53:38;;;;;;;4.95;1.73;;;15.80;99.90;;;;;;5015565;28;20176;-82
2022/11/03 09:56:04;;;;;;;3.40;1.70;;;15.80;99.90;;;;;;5015113;28;20256;-83
2022/11/03 09:58:32;;;;;;;9.10;2.35;;;15.80;99.90;;;;;;5015060;28;20770;-84
2022/11/03 10:00:59;;;;;;;9.20;1.98;;;15.90;99.90;;;;;;5015398;28;20175;-80
2022/11/03 10:03:25;;;;;;;2.40;1.42;;;15.90;99.90;;;;;;5015360;28;20174;-81
2022/11/03 10:05:52;;;;;;;6.05;2.35;;;15.90;99.90;;;;;;5015208;28;20184;-81
2022/11/03 10:08:21;;;;;;;6.75;1.77;;;16.00;99.90;;;;;;5013864;28;20686;-82
2022/11/03 10:10:47;;;;;;;6.93;2.08;;;16.10;99.90;;;;;;5013807;28;20173;-81
2022/11/03 10:13:22;;;;;;;15.15;2.05;;;16.20;99.90;;;;;;5013913;28;20190;-83
2022/11/03 10:15:48;;;;;;;8.77;1.85;;;16.20;99.90;;;;;;5015720;28;20593;-81
2022/11/03 10:18:14;;;;;;;9.40;1.95;;;15.90;99.90;;;;;;5014151;28;20192;-83
2022/11/03 10:20:39;;;;;;;8.88;1.30;;;16.00;99.90;;;;;;5015172;28;20173;-83
2022/11/03 10:23:07;;;;;;;4.63;1.58;;;16.00;99.90;;;;;;5015408;28;20167;-85
2022/11/03 10:25:43;;;;;;;3.38;1.40;;;16.00;99.90;;;;;;4997174;28;20519;-84
2022/11/03 10:28:17;;;;;;;5.63;1.92;;;15.90;99.90;;;;;;4996768;28;20219;-84
2022/11/03 10:31:07;;;;;;;16.35;2.42;;;15.90;99.90;;;;;;4996234;28;20177;-84
2022/11/03 10:33:49;;;;;;;4.93;1.67;;;16.00;99.90;;;;;;4995502;28;20562;-83
2022/11/03 10:36:14;;;;;;;6.38;1.88;;;16.00;99.90;;;;;;4995587;28;20217;-82
2022/11/03 10:38:42;;;;;;;9.32;1.35;;;16.20;99.90;;;;;;4995215;28;20659;-81
2022/11/03 10:41:21;;;;;;;4.55;1.40;;;16.20;99.90;;;;;;4995606;28;20169;-80
2022/11/03 10:44:00;;;;;;;13.23;2.05;;;16.30;99.90;;;;;;4995586;28;20165;-86
2022/11/03 10:46:26;;;;;;;5.70;1.92;;;16.20;99.90;;;;;;4994833;28;20231;-82
2022/11/03 10:49:15;;;;;;;6.18;1.85;;;16.30;99.90;;;;;;4993444;28;20193;-80
2022/11/03 10:51:42;;;;;;;4.28;1.77;;;16.30;99.90;;;;;;4993103;28;20208;-81
2022/11/03 10:54:13;;;;;;;3.50;1.70;;;16.30;99.90;;;;;;4994247;28;20219;-88
2022/11/03 10:56:39;;;;;;;6.38;1.98;;;16.60;99.90;;;;;;4997354;28;20205;-84
2022/11/03 10:59:05;;;;;;;6.10;1.30;;;16.60;99.90;;;;;;4995328;28;20168;-81
2022/11/03 11:01:31;;;;;;;3.97;1.70;;;16.40;99.90;;;;;;4994089;28;20174;-81
2022/11/03 11:03:57;;;;;;;5.20;1.77;;;16.30;99.90;;;;;;4994590;28;20234;-80
2022/11/03 11:06:28;;;;;;;8.30;1.90;;;16.30;99.90;;;;;;4994712;28;20216;-80
2022/11/03 11:09:00;;;;;;;3.80;1.70;;;16.20;99.90;;;;;;4993135;28;20216;-80
2022/11/03 11:11:27;;;;;;;13.52;1.40;;;16.20;99.90;;;;;;4997722;28;20165;-81
2022/11/03 11:14:29;;;;;;;5.85;2.05;;;16.40;99.90;;;;;;4993183;28;20177;-85
2022/11/03 11:16:59;;;;;;;6.68;1.88;;;16.70;99.90;;;;;;4994260;28;20834;-81
2022/11/03 11:19:27;;;;;;;2.88;1.42;;;16.90;99.90;;;;;;4993896;28;20639;-80
2022/11/03 11:21:52;;;;;;;5.00;1.08;;;16.90;99.90;;;;;;4993976;28;20177;-80
2022/11/03 11:24:43;;;;;;;6.03;1.40;;;17.00;99.90;;;;;;4995942;28;20177;-80
2022/11/03 11:27:30;;;;;;;2.42;1.13;;;16.90;99.90;;;;;;4993173;28;20199;-81
2022/11/03 11:30:00;;;;;;;5.78;1.50;;;16.90;99.90;;;;;;4995337;28;20528;-81
2022/11/03 11:32:39;;;;;;;6.88;1.33;;;17.00;99.90;;;;;;4994024;28;20197;-82
2022/11/03 11:35:09;;;;;;;4.07;1.40;;;16.90;99.90;;;;;;4996371;28;20169;-84
2022/11/03 11:37:37;;;;;;;6.97;1.30;;;17.00;99.90;;;;;;4996634;28;20643;-92
2022/11/03 11:40:23;;;;;;;4.38;1.00;;;16.90;99.90;;;;;;4999045;28;20164;-83
2022/11/03 11:43:12;;;;;;;1.30;0.73;;;16.80;99.90;;;;;;4956491;28;20188;-87
2022/11/03 11:46:15;;;;;;;8.32;1.17;;;16.80;99.90;;;;;;4997424;28;20169;-88
2022/11/03 11:48:41;;;;;;;7.10;1.48;;;17.00;99.90;;;;;;4994609;28;20566;-87
2022/11/03 11:51:09;;;;;;;2.92;1.10;;;17.00;99.90;;;;;;4996003;28;20181;-88
2022/11/03 11:53:40;;;;;;;2.95;1.10;;;17.10;99.90;;;;;;4995640;28;20169;-87
2022/11/03 11:56:09;;;;;;;4.05;1.33;;;17.10;99.90;;;;;;4995764;28;20197;-88
2022/11/03 11:58:59;;;;;;;11.75;1.83;;;17.20;99.90;;;;;;5004185;28;20205;-87
2022/11/03 12:01:30;;;;;;;1.95;1.02;;;17.00;99.90;;;;;;5002043;28;20165;-88
2022/11/03 12:04:13;;;;;;;3.75;1.45;;;17.10;99.90;;;;;;4996078;28;20705;-90
2022/11/03 12:06:40;;;;;;;2.38;1.42;;;17.20;99.90;;;;;;4995970;28;20245;-88
2022/11/03 12:09:14;;;;;;;3.65;1.45;;;17.10;99.90;;;;;;4995855;28;20566;-82
2022/11/03 12:11:48;;;;;;;9.00;1.60;;;16.90;99.90;;;;;;4994438;28;20176;-82
2022/11/03 12:14:24;;;;;;;4.88;1.27;;;17.00;99.90;;;;;;4992865;28;20256;-88
2022/11/03 12:16:50;;;;;;;3.08;1.17;;;17.20;99.90;;;;;;4993340;28;20656;-81
2022/11/03 12:19:36;;;;;;;4.35;1.23;;;17.30;99.90;;;;;;4993752;28;20201;-90
2022/11/03 12:22:05;;;;;;;8.38;1.35;;;17.50;99.90;;;;;;4996473;28;20173;-92
2022/11/03 12:24:30;;;;;;;7.05;1.35;;;17.50;99.90;;;;;;4995512;28;20220;-81
2022/11/03 12:26:59;;;;;;;4.30;1.13;;;17.50;99.90;;;;;;4995757;28;20177;-87
2022/11/03 12:29:25;;;;;;;8.70;1.27;;;17.50;99.90;;;;;;4996091;28;20660;-93
2022/11/03 12:31:52;;;;;;;2.17;1.13;;;17.40;99.90;;;;;;4993228;28;20176;-81
2022/11/03 12:34:17;;;;;;;7.78;1.27;;;17.30;99.90;;;;;;4991574;28;20169;-79
2022/11/03 12:36:44;;;;;;;1.75;1.10;;;17.30;99.90;;;;;;4992420;28;20209;-80
2022/11/03 12:39:10;;;;;;;4.88;1.10;;;17.30;99.90;;;;;;4991744;28;20177;-79
2022/11/03 12:41:35;;;;;;;6.97;1.45;;;17.20;99.90;;;;;;4997391;28;20178;-84
2022/11/03 12:44:01;;;;;;;2.67;1.30;;;17.00;99.90;;;;;;4997791;28;20173;-96
2022/11/03 12:46:27;;;;;;;5.88;0.98;;;17.10;99.90;;;;;;4996640;28;20180;-92
2022/11/03 12:48:52;;;;;;;3.05;1.73;;;17.00;99.90;;;;;;4998176;28;20181;-90
2022/11/03 12:51:20;;;;;;;7.47;1.30;;;16.70;99.90;;;;;;4998040;28;20176;-93
2022/11/03 12:53:46;;;;;;;2.08;1.15;;;16.40;99.90;;;;;;4997981;28;20165;-91
2022/11/03 12:56:13;;;;;;;9.38;1.40;;;16.40;99.90;;;;;;4998293;28;20220;-91
2022/11/03 12:58:39;;;;;;;3.08;1.20;;;16.30;99.90;;;;;;4997402;28;20185;-94
2022/11/03 13:01:06;;;;;;;3.38;1.30;;;16.40;99.90;;;;;;4999160;28;20243;-94
2022/11/03 13:03:33;;;;;;;4.07;1.38;;;16.10;99.90;;;;;;4998858;28;20173;-87
2022/11/03 13:05:59;;;;;;;6.32;2.28;;;16.00;99.90;;;;;;4996016;28;20180;-89
2022/11/03 13:08:26;;;;;;;9.30;1.60;;;16.00;99.90;;;;;;5003601;28;20200;-91
2022/11/03 13:10:52;;;;;;;5.55;1.88;;;15.90;99.90;;;;;;5004043;28;20178;-88
2022/11/03 13:13:18;;;;;;;4.72;1.65;;;15.80;99.90;;;;;;5011051;28;20177;-92